createdAt,value
2022-08-24T00:00:15.548Z,69.69
2022-08-24T00:02:18.307Z,69.92
2022-08-24T00:04:20.701Z,69.77
2022-08-24T00:06:23.799Z,69.93
2022-08-24T00:08:27.249Z,70.03
2022-08-24T00:10:29.671Z,69.74
2022-08-24T00:12:32.738Z,69.72
2022-08-24T00:14:35.853Z,69.99
2022-08-24T00:16:45.825Z,70.16
2022-08-24T00:18:48.837Z,69.97
2022-08-24T00:20:51.936Z,70.45
2022-08-24T00:22:54.084Z,70.36
2022-08-24T00:24:57.155Z,70.31
2022-08-24T00:27:00.139Z,70.31
2022-08-24T00:29:07.291Z,70.39
2022-08-24T00:31:10.667Z,70.73
2022-08-24T00:33:12.846Z,70.63
2022-08-24T00:35:18.614Z,70.47
2022-08-24T00:37:20.764Z,70.51
2022-08-24T00:39:23.049Z,70.67
2022-08-24T00:41:25.467Z,70.46
2022-08-24T00:43:27.753Z,70.52
2022-08-24T00:45:31.443Z,70.59
2022-08-24T00:47:42.963Z,70.74
2022-08-24T00:50:11.027Z,70.64
2022-08-24T00:52:20.326Z,70.83
2022-08-24T00:54:27.210Z,70.62
2022-08-24T00:56:42.733Z,70.59
2022-08-24T00:58:56.901Z,70.57
2022-08-24T01:01:04.542Z,70.62
2022-08-24T01:03:07.572Z,70.55
2022-08-24T01:05:12.579Z,70.66
2022-08-24T01:07:15.846Z,70.41
2022-08-24T01:09:18.030Z,70.15
2022-08-24T01:11:25.176Z,70.57
2022-08-24T01:13:29.703Z,70.17
2022-08-24T01:15:35.627Z,70.15
2022-08-24T01:17:56.890Z,70.20
2022-08-24T01:20:01.254Z,70.06
2022-08-24T01:22:37.777Z,69.92
2022-08-24T01:24:41.013Z,69.84
2022-08-24T01:26:49.805Z,70.23
2022-08-24T01:28:57.791Z,70.05
2022-08-24T01:31:01.490Z,69.90
2022-08-24T01:33:07.389Z,70.22
2022-08-24T01:35:10.082Z,69.89
2022-08-24T01:37:12.657Z,70.02
2022-08-24T01:39:21.014Z,70.08
2022-08-24T01:41:28.283Z,70.21
2022-08-24T01:43:31.526Z,70.00
2022-08-24T01:45:39.419Z,70.10
2022-08-24T01:47:41.605Z,70.33
2022-08-24T01:49:47.815Z,70.47
2022-08-24T01:51:50.145Z,70.60
2022-08-24T01:53:52.326Z,70.50
2022-08-24T01:55:54.764Z,70.44
2022-08-24T01:57:57.532Z,70.44
2022-08-24T02:00:00.494Z,70.54
2022-08-24T02:02:08.287Z,70.28
2022-08-24T02:04:10.813Z,70.41
2022-08-24T02:06:19.840Z,70.26
2022-08-24T02:08:22.220Z,70.45
2022-08-24T02:10:24.977Z,70.52
2022-08-24T02:12:27.417Z,70.45
2022-08-24T02:14:32.884Z,70.41
2022-08-24T02:16:44.594Z,70.11
2022-08-24T02:18:47.216Z,70.07
2022-08-24T02:20:50.547Z,70.55
2022-08-24T02:22:53.883Z,70.42
2022-08-24T02:24:56.120Z,70.45
2022-08-24T02:26:59.359Z,70.43
2022-08-24T02:29:03.608Z,70.29
2022-08-24T02:31:07.643Z,70.07
2022-08-24T02:33:09.871Z,69.91
2022-08-24T02:35:12.531Z,70.60
2022-08-24T02:37:14.838Z,69.99
2022-08-24T02:39:16.947Z,70.20
2022-08-24T02:41:18.969Z,69.81
2022-08-24T02:43:20.949Z,70.12
2022-08-24T02:45:23.031Z,69.93
2022-08-24T02:47:38.257Z,69.87
2022-08-24T02:49:41.497Z,70.00
2022-08-24T02:51:46.152Z,69.83
2022-08-24T02:53:48.642Z,69.72
2022-08-24T02:55:51.022Z,69.84
2022-08-24T02:57:53.007Z,69.95
2022-08-24T02:59:54.875Z,69.81
2022-08-24T03:01:56.681Z,70.25
2022-08-24T03:03:58.659Z,69.96
2022-08-24T03:06:00.475Z,70.20
2022-08-24T03:08:02.780Z,70.17
2022-08-24T03:10:07.159Z,70.10
2022-08-24T03:12:09.085Z,70.31
2022-08-24T03:14:11.322Z,70.56
2022-08-24T03:16:13.321Z,70.28
2022-08-24T03:18:15.223Z,70.42
2022-08-24T03:20:21.992Z,70.28
2022-08-24T03:22:24.453Z,70.23
2022-08-24T03:24:26.229Z,70.34
2022-08-24T03:26:28.355Z,70.37
2022-08-24T03:28:30.406Z,70.32
2022-08-24T03:30:33.264Z,70.51
2022-08-24T03:32:35.472Z,70.23
2022-08-24T03:34:37.977Z,70.04
2022-08-24T03:36:41.382Z,69.96
2022-08-24T03:38:44.043Z,69.92
2022-08-24T03:40:45.920Z,69.80
2022-08-24T03:42:47.825Z,69.88
2022-08-24T03:44:51.696Z,69.83
2022-08-24T03:46:54.191Z,69.86
2022-08-24T03:48:58.277Z,69.88
2022-08-24T03:51:00.388Z,69.68
2022-08-24T03:53:02.471Z,69.67
2022-08-24T03:55:07.052Z,69.79
2022-08-24T03:57:08.860Z,69.85
2022-08-24T03:59:11.107Z,69.78
2022-08-24T04:01:13.851Z,70.03
2022-08-24T04:03:16.082Z,69.90
2022-08-24T04:05:18.037Z,69.93
2022-08-24T04:07:20.353Z,69.51
2022-08-24T04:09:22.232Z,69.87
2022-08-24T04:11:28.355Z,69.73
2022-08-24T04:13:33.683Z,69.96
2022-08-24T04:15:40.395Z,69.91
2022-08-24T04:17:42.383Z,69.95
2022-08-24T04:19:59.825Z,69.94
2022-08-24T04:22:01.892Z,70.23
2022-08-24T04:24:06.072Z,70.24
2022-08-24T04:26:07.843Z,70.29
2022-08-24T04:28:10.727Z,70.25
2022-08-24T04:30:14.619Z,70.21
2022-08-24T04:32:16.583Z,70.11
2022-08-24T04:34:18.838Z,70.32
2022-08-24T04:36:21.865Z,70.40
2022-08-24T04:38:24.021Z,70.54
2022-08-24T04:40:25.965Z,70.35
2022-08-24T04:42:27.936Z,70.69
2022-08-24T04:44:30.146Z,70.85
2022-08-24T04:46:33.570Z,71.13
2022-08-24T04:48:36.243Z,71.07
2022-08-24T04:50:40.134Z,70.98
2022-08-24T04:52:42.272Z,71.17
2022-08-24T04:54:44.085Z,71.60
2022-08-24T04:56:46.108Z,71.33
2022-08-24T04:58:48.177Z,71.01
2022-08-24T05:00:50.249Z,71.39
2022-08-24T05:02:52.165Z,71.49
2022-08-24T05:04:55.405Z,71.75
2022-08-24T05:06:57.494Z,71.78
2022-08-24T05:09:00.684Z,71.73
2022-08-24T05:11:07.557Z,72.09
2022-08-24T05:13:10.239Z,71.88
2022-08-24T05:15:13.211Z,71.99
2022-08-24T05:17:14.988Z,72.14
2022-08-24T05:19:17.286Z,71.91
2022-08-24T05:21:21.754Z,71.63
2022-08-24T05:23:23.722Z,72.06
2022-08-24T05:25:25.676Z,72.34
2022-08-24T05:27:27.562Z,72.08
2022-08-24T05:29:29.993Z,72.02
2022-08-24T05:31:32.913Z,72.29
2022-08-24T05:33:34.935Z,72.19
2022-08-24T05:35:43.635Z,72.33
2022-08-24T05:37:46.342Z,72.35
2022-08-24T05:39:55.545Z,72.11
2022-08-24T05:41:59.928Z,72.26
2022-08-24T05:44:01.736Z,72.29
2022-08-24T05:46:08.434Z,72.29
2022-08-24T05:48:10.298Z,72.43
2022-08-24T05:50:12.652Z,72.50
2022-08-24T05:52:14.427Z,72.53
2022-08-24T05:54:16.256Z,72.03
2022-08-24T05:56:19.712Z,72.45
2022-08-24T05:58:22.966Z,72.53
2022-08-24T06:00:33.557Z,72.26
2022-08-24T06:02:35.355Z,72.22
2022-08-24T06:04:38.266Z,72.26
2022-08-24T06:06:40.296Z,72.45
2022-08-24T06:08:46.102Z,72.14
2022-08-24T06:10:50.914Z,72.29
2022-08-24T06:12:52.645Z,71.91
2022-08-24T06:14:54.716Z,71.50
2022-08-24T06:16:56.567Z,71.58
2022-08-24T06:18:58.294Z,71.92
2022-08-24T06:21:05.020Z,71.86
2022-08-24T06:23:07.258Z,71.63
2022-08-24T06:25:27.729Z,71.65
2022-08-24T06:27:29.621Z,71.69
2022-08-24T06:29:34.348Z,71.37
2022-08-24T06:31:42.253Z,71.65
2022-08-24T06:33:45.355Z,71.63
2022-08-24T06:35:47.778Z,71.39
2022-08-24T06:37:49.446Z,71.15
2022-08-24T06:39:54.953Z,71.00
2022-08-24T06:41:59.440Z,70.72
2022-08-24T06:44:01.147Z,70.50
2022-08-24T06:46:03.712Z,70.72
2022-08-24T06:48:05.510Z,70.54
2022-08-24T06:50:08.651Z,70.29
2022-08-24T06:52:11.965Z,70.32
2022-08-24T06:54:14.052Z,70.54
2022-08-24T06:56:16.833Z,70.56
2022-08-24T06:58:19.279Z,70.93
2022-08-24T07:00:22.061Z,70.66
2022-08-24T07:02:24.622Z,70.61
2022-08-24T07:04:28.342Z,70.61
2022-08-24T07:06:31.844Z,70.52
2022-08-24T07:08:34.419Z,70.87
2022-08-24T07:10:36.184Z,70.82
2022-08-24T07:12:38.132Z,70.75
2022-08-24T07:14:39.811Z,70.97
2022-08-24T07:16:41.537Z,70.73
2022-08-24T07:18:47.320Z,70.61
2022-08-24T07:20:51.878Z,70.31
2022-08-24T07:22:54.602Z,70.07
2022-08-24T07:24:56.308Z,69.92
2022-08-24T07:26:58.031Z,69.88
2022-08-24T07:29:06.384Z,69.95
2022-08-24T07:31:09.901Z,69.87
2022-08-24T07:33:12.228Z,69.86
2022-08-24T07:35:15.559Z,69.80
2022-08-24T07:37:18.450Z,69.51
2022-08-24T07:39:20.144Z,69.37
2022-08-24T07:41:51.403Z,69.32
2022-08-24T07:43:46.806Z,69.52
2022-08-24T07:45:49.771Z,69.45
2022-08-24T07:49:58.965Z,68.77
2022-08-24T07:52:01.196Z,68.74
2022-08-24T07:54:03.441Z,68.65
2022-08-24T07:56:10.129Z,68.26
2022-08-24T07:58:11.888Z,67.91
2022-08-24T08:00:16.478Z,67.78
2022-08-24T08:02:18.485Z,67.91
2022-08-24T08:04:25.197Z,67.73
2022-08-24T08:06:26.989Z,67.79
2022-08-24T08:08:29.619Z,67.49
2022-08-24T08:10:31.466Z,67.40
2022-08-24T08:12:35.074Z,67.22
2022-08-24T08:14:38.503Z,67.36
2022-08-24T08:16:40.645Z,66.97
2022-08-24T08:18:45.518Z,66.71
2022-08-24T08:20:47.562Z,66.66
2022-08-24T08:23:07.762Z,66.66
2022-08-24T08:25:09.833Z,66.57
2022-08-24T08:27:13.074Z,66.42
2022-08-24T08:29:14.835Z,66.33
2022-08-24T08:31:16.606Z,65.68
2022-08-24T08:33:18.644Z,65.91
2022-08-24T08:35:20.991Z,65.67
2022-08-24T08:37:22.981Z,65.60
2022-08-24T08:39:28.034Z,65.53
2022-08-24T08:42:00.705Z,64.76
2022-08-24T08:44:11.943Z,64.78
2022-08-24T08:46:13.709Z,64.63
2022-08-24T08:48:42.493Z,64.17
2022-08-24T08:51:21.430Z,64.20
2022-08-24T08:53:56.852Z,63.96
2022-08-24T08:56:09.693Z,63.52
2022-08-24T08:58:25.659Z,63.97
2022-08-24T09:00:40.837Z,63.01
2022-08-24T09:03:27.205Z,62.79
2022-08-24T09:05:34.435Z,62.32
2022-08-24T09:07:47.697Z,62.50
2022-08-24T09:10:02.540Z,61.96
2022-08-24T09:12:11.800Z,61.88
2022-08-24T09:14:41.478Z,62.24
2022-08-24T09:17:01.874Z,62.32
2022-08-24T09:19:34.696Z,62.15
2022-08-24T09:21:42.395Z,62.26
2022-08-24T09:24:15.853Z,62.13
2022-08-24T09:26:27.270Z,62.20
2022-08-24T09:28:35.044Z,61.94
2022-08-24T09:30:55.394Z,61.53
2022-08-24T09:33:00.611Z,61.26
2022-08-24T09:35:09.900Z,60.76
2022-08-24T09:37:34.848Z,60.38
2022-08-24T09:39:59.047Z,60.58
2022-08-24T09:42:09.790Z,60.67
2022-08-24T09:44:38.810Z,60.73
2022-08-24T09:46:55.806Z,60.66
2022-08-24T09:49:29.855Z,60.40
2022-08-24T09:51:49.745Z,60.11
2022-08-24T09:54:08.859Z,59.31
2022-08-24T09:56:37.796Z,58.84
2022-08-24T09:58:59.114Z,58.30
2022-08-24T10:01:26.274Z,58.04
2022-08-24T10:03:41.074Z,58.11
2022-08-24T10:06:03.816Z,57.87
2022-08-24T10:08:42.313Z,57.13
2022-08-24T10:11:03.197Z,56.78
2022-08-24T10:13:25.306Z,56.39
2022-08-24T10:15:53.494Z,55.92
2022-08-24T10:18:17.833Z,55.66
2022-08-24T10:20:23.952Z,55.47
2022-08-24T10:22:47.143Z,55.63
2022-08-24T10:24:58.628Z,55.44
2022-08-24T10:27:08.898Z,54.86
2022-08-24T10:29:29.198Z,54.65
2022-08-24T10:31:41.117Z,54.27
2022-08-24T10:34:16.678Z,54.40
2022-08-24T10:36:36.302Z,54.07
2022-08-24T10:39:24.918Z,53.28
2022-08-24T10:41:59.984Z,51.12
2022-08-24T10:44:40.848Z,50.17
2022-08-24T10:46:50.310Z,49.73
2022-08-24T10:49:13.845Z,49.55
2022-08-24T10:51:54.069Z,49.86
2022-08-24T10:53:57.088Z,49.98
2022-08-24T10:56:19.718Z,50.33
2022-08-24T10:58:46.242Z,49.87
2022-08-24T11:00:48.702Z,49.25
2022-08-24T11:03:15.631Z,49.05
2022-08-24T11:05:35.544Z,47.91
2022-08-24T11:07:45.718Z,47.16
2022-08-24T11:09:58.711Z,46.72
2022-08-24T11:12:18.369Z,46.70
2022-08-24T11:14:27.651Z,46.72
2022-08-24T11:16:39.937Z,46.05
2022-08-24T11:18:52.750Z,45.82
2022-08-24T11:20:55.750Z,45.20
2022-08-24T11:23:08.010Z,45.49
2022-08-24T11:25:36.097Z,45.37
2022-08-24T11:27:45.958Z,45.34
2022-08-24T11:29:57.278Z,45.28
2022-08-24T11:32:00.359Z,45.36
2022-08-24T11:34:16.457Z,45.69
2022-08-24T11:36:21.517Z,45.74
2022-08-24T11:38:27.539Z,46.25
2022-08-24T11:40:34.032Z,45.83
2022-08-24T11:43:01.210Z,45.27
2022-08-24T11:45:15.286Z,45.33
2022-08-24T11:47:23.538Z,45.63
2022-08-24T11:50:05.659Z,45.60
2022-08-24T11:52:15.803Z,44.92
2022-08-24T11:54:33.791Z,44.52
2022-08-24T11:56:51.029Z,44.72
2022-08-24T11:59:13.819Z,44.24
2022-08-24T12:01:35.990Z,44.73
2022-08-24T12:03:52.458Z,44.43
2022-08-24T12:06:21.051Z,44.62
2022-08-24T12:08:53.337Z,43.87
2022-08-24T12:11:32.996Z,42.77
2022-08-24T12:13:52.973Z,42.43
2022-08-24T12:16:08.273Z,41.82
2022-08-24T12:18:31.101Z,41.18
2022-08-24T12:20:38.927Z,41.51
2022-08-24T12:22:42.651Z,41.66
2022-08-24T12:24:48.678Z,42.17
2022-08-24T12:26:53.771Z,42.37
2022-08-24T12:29:30.779Z,42.68
2022-08-24T12:31:42.466Z,41.59
2022-08-24T12:33:50.179Z,41.76
2022-08-24T12:35:58.263Z,41.43
2022-08-24T12:38:19.639Z,40.91
2022-08-24T12:40:49.323Z,40.92
2022-08-24T12:42:56.245Z,41.32
2022-08-24T12:45:07.153Z,40.98
2022-08-24T12:47:09.430Z,40.84
2022-08-24T12:49:36.518Z,40.93
2022-08-24T12:51:48.599Z,40.07
2022-08-24T12:54:02.434Z,39.62
2022-08-24T12:56:33.109Z,39.75
2022-08-24T12:58:54.688Z,40.42
2022-08-24T13:00:58.554Z,39.96
2022-08-24T13:03:06.215Z,39.74
2022-08-24T13:05:16.852Z,40.06
2022-08-24T13:07:21.491Z,39.81
2022-08-24T13:09:33.331Z,39.12
2022-08-24T13:11:35.701Z,38.50
2022-08-24T13:13:47.948Z,38.70
2022-08-24T13:15:55.593Z,38.04
2022-08-24T13:18:02.989Z,37.53
2022-08-24T13:20:24.887Z,37.01
2022-08-24T13:22:46.950Z,37.75
2022-08-24T13:24:58.830Z,38.02
2022-08-24T13:27:12.583Z,38.30
2022-08-24T13:29:16.491Z,38.73
2022-08-24T13:31:33.517Z,38.05
2022-08-24T13:33:50.590Z,37.54
2022-08-24T13:36:21.635Z,37.64
2022-08-24T13:38:28.933Z,37.77
2022-08-24T13:40:32.210Z,38.18
2022-08-24T13:43:07.913Z,37.77
2022-08-24T13:45:23.466Z,37.48
2022-08-24T13:47:31.382Z,37.23
2022-08-24T13:50:12.449Z,37.04
2022-08-24T13:53:01.830Z,36.76
2022-08-24T13:55:41.728Z,36.56
2022-08-24T13:58:04.218Z,35.42
2022-08-24T14:00:30.187Z,36.08
2022-08-24T14:03:19.957Z,36.00
2022-08-24T14:05:38.571Z,35.56
2022-08-24T14:08:03.844Z,35.12
2022-08-24T14:10:27.346Z,35.57
2022-08-24T14:12:34.750Z,35.58
2022-08-24T14:14:57.413Z,35.83
2022-08-24T14:17:36.830Z,36.07
2022-08-24T14:20:02.843Z,35.10
2022-08-24T14:22:10.551Z,35.40
2022-08-24T14:24:30.737Z,34.44
2022-08-24T14:26:43.897Z,34.23
2022-08-24T14:28:45.856Z,34.72
2022-08-24T14:30:54.254Z,35.11
2022-08-24T14:32:59.340Z,35.30
2022-08-24T14:35:09.997Z,34.53
2022-08-24T14:37:30.617Z,34.03
2022-08-24T14:40:03.339Z,34.02
2022-08-24T14:42:23.188Z,33.98
2022-08-24T14:44:53.045Z,33.45
2022-08-24T14:47:04.578Z,33.67
2022-08-24T14:49:20.570Z,33.39
2022-08-24T14:51:41.169Z,33.36
2022-08-24T14:54:00.237Z,33.91
2022-08-24T14:56:35.928Z,33.87
2022-08-24T14:59:12.818Z,33.42
2022-08-24T15:01:46.847Z,34.20
2022-08-24T15:04:11.138Z,34.11
2022-08-24T15:06:39.356Z,33.88
2022-08-24T15:08:44.297Z,33.85
2022-08-24T15:10:52.796Z,33.67
2022-08-24T15:13:03.941Z,33.82
2022-08-24T15:15:34.505Z,34.16
2022-08-24T15:17:46.654Z,34.45
2022-08-24T15:20:08.500Z,34.74
2022-08-24T15:22:43.872Z,35.18
2022-08-24T15:25:04.707Z,35.71
2022-08-24T15:27:15.425Z,35.05
2022-08-24T15:29:21.505Z,35.22
2022-08-24T15:31:28.164Z,34.75
2022-08-24T15:33:31.381Z,34.43
2022-08-24T15:35:37.598Z,33.59
2022-08-24T15:37:42.075Z,33.38
2022-08-24T15:39:59.589Z,33.06
2022-08-24T15:42:10.243Z,32.63
2022-08-24T15:44:23.330Z,31.94
2022-08-24T15:46:32.059Z,32.01
2022-08-24T15:48:35.032Z,31.64
2022-08-24T15:50:43.439Z,31.29
2022-08-24T15:52:51.360Z,31.30
2022-08-24T15:55:03.500Z,31.07
2022-08-24T15:57:27.905Z,31.83
2022-08-24T15:59:53.159Z,31.40
2022-08-24T16:02:28.664Z,32.23
2022-08-24T16:05:15.608Z,31.96
2022-08-24T16:07:26.413Z,32.31
2022-08-24T16:09:28.064Z,32.09
2022-08-24T16:11:38.520Z,32.15
2022-08-24T16:13:42.703Z,32.59
2022-08-24T16:15:48.886Z,33.06
2022-08-24T16:17:56.309Z,33.37
2022-08-24T16:20:01.441Z,33.51
2022-08-24T16:22:13.032Z,33.85
2022-08-24T16:24:20.544Z,33.96
2022-08-24T16:26:30.532Z,34.54
2022-08-24T16:28:36.422Z,34.59
2022-08-24T16:30:46.763Z,34.86
2022-08-24T16:32:54.012Z,35.04
2022-08-24T16:35:15.648Z,35.56
2022-08-24T16:37:20.328Z,35.62
2022-08-24T16:39:22.475Z,35.89
2022-08-24T16:41:25.013Z,35.85
2022-08-24T16:43:26.911Z,36.25
2022-08-24T16:45:32.804Z,36.37
2022-08-24T16:47:37.713Z,36.40
2022-08-24T16:49:45.015Z,36.42
2022-08-24T16:51:46.686Z,36.39
2022-08-24T16:53:48.356Z,36.30
2022-08-24T16:55:51.097Z,36.53
2022-08-24T16:57:52.859Z,36.58
2022-08-24T16:59:56.527Z,36.63
2022-08-24T17:02:01.546Z,36.42
2022-08-24T17:04:03.423Z,36.81
2022-08-24T17:06:05.699Z,36.68
2022-08-24T17:08:07.581Z,37.10
2022-08-24T17:10:13.537Z,37.20
2022-08-24T17:12:15.450Z,37.09
2022-08-24T17:14:17.590Z,37.12
2022-08-24T17:16:21.694Z,37.20
2022-08-24T17:18:24.919Z,37.82
2022-08-24T17:20:26.582Z,37.68
2022-08-24T17:22:28.422Z,37.94
2022-08-24T17:24:30.238Z,37.96
2022-08-24T17:26:32.463Z,38.24
2022-08-24T17:28:39.233Z,37.92
2022-08-24T17:30:41.990Z,38.08
2022-08-24T17:32:43.751Z,38.25
2022-08-24T17:34:45.432Z,38.27
2022-08-24T17:36:53.385Z,38.19
2022-08-24T17:38:57.205Z,38.43
2022-08-24T17:40:59.103Z,38.47
2022-08-24T17:43:00.838Z,38.13
2022-08-24T17:45:02.791Z,38.72
2022-08-24T17:47:05.436Z,38.66
2022-08-24T17:49:11.809Z,38.69
2022-08-24T17:51:14.759Z,38.45
2022-08-24T17:53:16.532Z,38.54
2022-08-24T17:55:24.041Z,38.69
2022-08-24T17:57:29.108Z,38.55
2022-08-24T17:59:35.241Z,38.54
2022-08-24T18:01:37.091Z,38.41
2022-08-24T18:03:38.803Z,38.71
2022-08-24T18:05:40.851Z,38.48
2022-08-24T18:07:55.877Z,38.41
2022-08-24T18:10:00.365Z,38.94
2022-08-24T18:12:03.944Z,39.10
2022-08-24T18:14:05.735Z,38.80
2022-08-24T18:16:13.731Z,39.33
2022-08-24T18:18:15.762Z,39.53
2022-08-24T18:20:22.984Z,39.41
2022-08-24T18:22:25.218Z,39.57
2022-08-24T18:24:32.278Z,39.58
2022-08-24T18:26:34.375Z,39.42
2022-08-24T18:28:37.138Z,39.43
2022-08-24T18:30:41.881Z,39.65
2022-08-24T18:32:45.939Z,39.71
2022-08-24T18:34:47.623Z,39.51
2022-08-24T18:36:49.365Z,39.93
2022-08-24T18:38:51.417Z,39.88
2022-08-24T18:40:53.680Z,39.90
2022-08-24T18:42:57.514Z,39.79
2022-08-24T18:45:03.119Z,40.10
2022-08-24T18:47:05.203Z,39.86
2022-08-24T18:49:07.403Z,39.54
2022-08-24T18:51:10.912Z,40.09
2022-08-24T18:53:13.804Z,39.96
2022-08-24T18:55:17.214Z,40.00
2022-08-24T18:57:20.445Z,39.88
2022-08-24T18:59:22.543Z,39.92
2022-08-24T19:01:25.961Z,40.03
2022-08-24T19:03:28.174Z,39.98
2022-08-24T19:05:30.524Z,40.04
2022-08-24T19:07:36.368Z,40.38
2022-08-24T19:09:38.325Z,40.11
2022-08-24T19:11:40.532Z,40.47
2022-08-24T19:13:42.618Z,40.36
2022-08-24T19:15:48.933Z,40.37
2022-08-24T19:17:50.887Z,40.72
2022-08-24T19:19:58.054Z,40.67
2022-08-24T19:22:01.101Z,40.75
2022-08-24T19:24:07.077Z,40.69
2022-08-24T19:26:09.636Z,41.03
2022-08-24T19:28:12.599Z,41.31
2022-08-24T19:30:14.498Z,41.12
2022-08-24T19:32:22.401Z,41.61
2022-08-24T19:34:24.808Z,41.83
2022-08-24T19:36:32.683Z,42.22
2022-08-24T19:38:35.202Z,42.32
2022-08-24T19:40:39.067Z,42.50
2022-08-24T19:42:41.381Z,42.36
2022-08-24T19:45:02.800Z,42.64
2022-08-24T19:47:08.753Z,42.69
2022-08-24T19:49:11.100Z,43.10
2022-08-24T19:51:14.359Z,42.69
2022-08-24T19:53:16.432Z,42.98
2022-08-24T19:55:18.505Z,43.26
2022-08-24T19:57:39.086Z,43.46
2022-08-24T19:59:50.717Z,43.69
2022-08-24T20:01:52.824Z,43.35
2022-08-24T20:03:55.173Z,43.47
2022-08-24T20:05:57.405Z,44.11
2022-08-24T20:08:00.562Z,43.74
2022-08-24T20:10:12.489Z,43.91
2022-08-24T20:12:15.222Z,44.05
2022-08-24T20:14:18.249Z,44.19
2022-08-24T20:16:21.860Z,44.37
2022-08-24T20:18:30.858Z,44.42
2022-08-24T20:20:33.050Z,44.38
2022-08-24T20:22:35.268Z,44.34
2022-08-24T20:24:37.369Z,44.41
2022-08-24T20:26:43.499Z,45.17
2022-08-24T20:28:53.239Z,44.82
2022-08-24T20:30:55.318Z,44.88
2022-08-24T20:32:57.820Z,44.82
2022-08-24T20:35:00.142Z,45.23
2022-08-24T20:37:02.180Z,45.12
2022-08-24T20:39:07.459Z,45.11
2022-08-24T20:41:09.462Z,45.53
2022-08-24T20:43:12.661Z,45.17
2022-08-24T20:45:15.220Z,45.40
2022-08-24T20:47:17.984Z,45.29
2022-08-24T20:49:26.707Z,45.95
2022-08-24T20:51:29.072Z,45.96
2022-08-24T20:53:31.071Z,46.04
2022-08-24T20:55:33.161Z,46.22
2022-08-24T20:57:35.549Z,46.19
2022-08-24T20:59:37.674Z,46.61
2022-08-24T21:01:44.208Z,46.68
2022-08-24T21:03:46.945Z,46.70
2022-08-24T21:05:52.602Z,46.82
2022-08-24T21:07:57.366Z,46.82
2022-08-24T21:09:59.536Z,47.04
2022-08-24T21:12:01.620Z,47.04
2022-08-24T21:14:08.275Z,47.10
2022-08-24T21:16:15.310Z,47.52
2022-08-24T21:18:17.471Z,47.47
2022-08-24T21:20:20.310Z,47.50
2022-08-24T21:22:22.154Z,47.66
2022-08-24T21:24:25.907Z,48.00
2022-08-24T21:26:29.838Z,47.77
2022-08-24T21:28:32.631Z,47.90
2022-08-24T21:30:34.882Z,47.96
2022-08-24T21:32:56.027Z,48.23
2022-08-24T21:34:57.760Z,48.36
2022-08-24T21:36:59.873Z,48.41
2022-08-24T21:39:01.794Z,48.52
2022-08-24T21:41:03.552Z,48.39
2022-08-24T21:43:14.721Z,48.63
2022-08-24T21:45:19.838Z,48.84
2022-08-24T21:47:21.577Z,48.90
2022-08-24T21:49:23.789Z,48.71
2022-08-24T21:51:25.521Z,49.05
2022-08-24T21:53:28.677Z,48.92
2022-08-24T21:55:30.736Z,49.00
2022-08-24T21:57:32.438Z,49.24
2022-08-24T21:59:34.728Z,49.43
2022-08-24T22:01:38.725Z,49.61
2022-08-24T22:03:40.545Z,49.68
2022-08-24T22:05:42.208Z,49.67
2022-08-24T22:07:44.816Z,49.55
2022-08-24T22:09:56.179Z,49.83
2022-08-24T22:11:59.552Z,49.95
2022-08-24T22:14:02.509Z,49.91
2022-08-24T22:16:04.809Z,50.02
2022-08-24T22:18:06.626Z,50.00
2022-08-24T22:20:22.312Z,50.15
2022-08-24T22:22:25.727Z,50.25
2022-08-24T22:24:27.781Z,50.12
2022-08-24T22:26:30.403Z,50.23
2022-08-24T22:28:34.553Z,50.34
2022-08-24T22:30:36.284Z,50.45
2022-08-24T22:32:38.199Z,50.35
2022-08-24T22:34:39.997Z,50.56
2022-08-24T22:36:42.712Z,50.62
2022-08-24T22:38:44.666Z,50.74
2022-08-24T22:40:46.909Z,50.84
2022-08-24T22:42:48.581Z,50.91
2022-08-24T22:44:50.390Z,50.84
2022-08-24T22:46:55.647Z,51.01
2022-08-24T22:48:57.425Z,51.08
2022-08-24T22:50:59.085Z,51.09
2022-08-24T22:53:00.836Z,51.23
2022-08-24T22:55:03.266Z,51.18
2022-08-24T22:57:05.083Z,51.07
2022-08-24T22:59:08.849Z,51.21
2022-08-24T23:01:17.549Z,51.40
2022-08-24T23:03:19.378Z,51.40
2022-08-24T23:05:21.150Z,51.26
2022-08-24T23:07:23.041Z,51.37
2022-08-24T23:09:25.349Z,51.45
2022-08-24T23:11:27.704Z,51.50
2022-08-24T23:13:29.407Z,51.38
2022-08-24T23:15:31.177Z,51.62
2022-08-24T23:17:32.963Z,51.68
2022-08-24T23:19:53.361Z,51.45
2022-08-24T23:21:55.251Z,51.66
2022-08-24T23:23:56.950Z,51.65
2022-08-24T23:25:58.636Z,51.77
2022-08-24T23:28:01.128Z,52.10
2022-08-24T23:30:03.735Z,52.16
2022-08-24T23:32:06.856Z,52.27
2022-08-24T23:34:08.641Z,52.30
2022-08-24T23:36:14.019Z,52.44
2022-08-24T23:38:15.872Z,52.49
2022-08-24T23:40:19.133Z,52.54
2022-08-24T23:42:20.974Z,52.57
2022-08-24T23:44:26.132Z,52.63
2022-08-24T23:46:27.926Z,52.50
2022-08-24T23:48:30.337Z,52.54
2022-08-24T23:50:32.526Z,52.90
2022-08-24T23:52:37.818Z,52.90
2022-08-24T23:54:39.503Z,53.17
2022-08-24T23:56:44.954Z,53.49
2022-08-24T23:58:50.030Z,53.67
